Time;durP1;ratioP1;P1;durP2;ratioP2;P2;SDS_P1;SDS_P2;PMS_P1;PMS_P2;Temp;Humidity;BMP_temperature;BMP_pressure;BME280_temperature;BME280_humidity;BME280_pressure;Samples;Min_cycle;Max_cycle;Signal;HPM_P1;HPM_P2
2022/04/15 00:03:16;;;;;;;0.77;0.77;;;;;;;;;;20279197;29;20064;-83
2022/04/15 00:13:24;;;;;;;0.85;0.82;;;;;;;;;;20277731;29;20599;-82
2022/04/15 00:23:26;;;;;;;0.80;0.77;;;;;;;;;;20277687;29;20080;-83
2022/04/15 00:33:28;;;;;;;2.75;0.85;;;;;;;;;;20276617;29;20068;-79
2022/04/15 00:43:30;;;;;;;1.58;1.00;;;;;;;;;;20274304;29;20056;-81
2022/04/15 00:53:32;;;;;;;1.17;0.68;;;;;;;;;;20274627;29;20068;-82
2022/04/15 01:03:35;;;;;;;1.20;0.80;;;;;;;;;;20274475;29;20134;-82
2022/04/15 01:13:38;;;;;;;1.15;0.70;;;;;;;;;;20260233;29;20060;-83
2022/04/15 01:23:40;;;;;;;1.88;0.70;;;;;;;;;;20310997;29;20380;-82
2022/04/15 01:33:42;;;;;;;0.80;0.80;;;;;;;;;;20310698;29;20064;-83
2022/04/15 01:43:44;;;;;;;1.00;0.73;;;;;;;;;;20309721;29;20048;-84
2022/04/15 01:53:45;;;;;;;1.55;0.70;;;;;;;;;;20282654;29;20127;-84
2022/04/15 02:03:47;;;;;;;1.75;0.90;;;;;;;;;;20301333;29;20048;-81
2022/04/15 02:13:49;;;;;;;1.27;0.80;;;;;;;;;;20289542;29;20495;-83
2022/04/15 02:23:51;;;;;;;1.73;0.80;;;;;;;;;;20305295;29;20487;-83
2022/04/15 02:33:53;;;;;;;0.95;0.73;;;;;;;;;;20304810;29;20056;-84
2022/04/15 02:43:54;;;;;;;0.75;0.70;;;;;;;;;;20303997;29;20056;-84
2022/04/15 02:53:56;;;;;;;1.23;0.73;;;;;;;;;;20302613;29;20067;-84
2022/04/15 03:03:58;;;;;;;0.82;0.63;;;;;;;;;;20298942;29;21756;-84
2022/04/15 03:13:59;;;;;;;0.93;0.60;;;;;;;;;;20293792;29;20047;-85
2022/04/15 03:24:02;;;;;;;0.60;0.60;;;;;;;;;;20281219;29;20052;-84
2022/04/15 03:34:04;;;;;;;0.70;0.63;;;;;;;;;;20296493;29;20058;-83
2022/04/15 03:44:05;;;;;;;0.88;0.60;;;;;;;;;;20295449;29;20049;-83
2022/04/15 03:54:08;;;;;;;1.02;0.68;;;;;;;;;;20279102;29;20048;-83
2022/04/15 04:04:10;;;;;;;0.98;0.60;;;;;;;;;;20296093;29;20044;-83
2022/04/15 04:14:12;;;;;;;0.70;0.60;;;;;;;;;;20300838;29;20084;-83
2022/04/15 04:24:16;;;;;;;1.38;0.70;;;;;;;;;;20268751;29;20554;-82
2022/04/15 04:34:18;;;;;;;0.60;0.55;;;;;;;;;;20301195;29;21310;-81
2022/04/15 04:44:19;;;;;;;1.35;0.70;;;;;;;;;;20303900;29;20052;-81
2022/04/15 04:54:21;;;;;;;0.70;0.70;;;;;;;;;;20303608;29;20139;-82
2022/04/15 05:04:23;;;;;;;1.65;0.80;;;;;;;;;;20284508;29;20113;-82
2022/04/15 05:14:25;;;;;;;0.90;0.60;;;;;;;;;;20311854;29;20134;-83
2022/04/15 05:24:26;;;;;;;0.60;0.40;;;;;;;;;;20299900;29;20062;-81
2022/04/15 05:34:28;;;;;;;0.70;0.50;;;;;;;;;;20273100;29;20149;-83
2022/04/15 05:44:30;;;;;;;0.82;0.70;;;;;;;;;;20270135;29;20077;-82
2022/04/15 05:54:32;;;;;;;0.30;0.30;;;;;;;;;;20269450;29;20103;-81
2022/04/15 06:04:33;;;;;;;0.85;0.57;;;;;;;;;;20253083;29;20045;-81
2022/04/15 06:14:36;;;;;;;1.88;0.60;;;;;;;;;;20269396;29;20064;-82
2022/04/15 06:24:37;;;;;;;0.70;0.60;;;;;;;;;;20268454;29;20050;-82
2022/04/15 06:34:39;;;;;;;0.60;0.50;;;;;;;;;;20267625;29;20526;-83
2022/04/15 06:44:41;;;;;;;0.65;0.60;;;;;;;;;;20267189;29;20181;-83
2022/04/15 06:54:43;;;;;;;0.70;0.70;;;;;;;;;;20266125;29;20415;-82
2022/04/15 07:04:44;;;;;;;0.95;0.63;;;;;;;;;;20265323;29;20045;-82
2022/04/15 07:14:46;;;;;;;1.05;0.70;;;;;;;;;;20266616;29;20064;-83
2022/04/15 07:24:48;;;;;;;0.98;0.70;;;;;;;;;;20264140;29;20044;-82
2022/04/15 07:34:50;;;;;;;0.60;0.60;;;;;;;;;;20263965;29;20052;-83
2022/04/15 07:44:52;;;;;;;0.93;0.80;;;;;;;;;;20247061;29;20500;-82
2022/04/15 07:54:54;;;;;;;1.05;0.95;;;;;;;;;;20263470;29;20056;-82
2022/04/15 08:04:56;;;;;;;0.80;0.80;;;;;;;;;;20265818;29;20048;-82
2022/04/15 08:14:58;;;;;;;1.23;1.00;;;;;;;;;;20277928;29;20048;-82
2022/04/15 08:25:00;;;;;;;1.52;1.05;;;;;;;;;;20277439;29;20060;-83
2022/04/15 08:35:05;;;;;;;2.90;1.40;;;;;;;;;;20276498;29;20147;-82
2022/04/15 08:45:08;;;;;;;2.20;1.45;;;;;;;;;;20275679;29;20164;-82
2022/04/15 08:55:09;;;;;;;3.00;1.75;;;;;;;;;;20279198;29;20060;-82
2022/04/15 09:05:12;;;;;;;2.10;1.60;;;;;;;;;;20274514;29;20041;-82
2022/04/15 09:15:14;;;;;;;4.45;1.83;;;;;;;;;;20273584;29;20056;-82
2022/04/15 09:25:21;;;;;;;1.85;1.27;;;;;;;;;;20256204;29;20052;-83
2022/04/15 09:35:23;;;;;;;1.98;1.50;;;;;;;;;;20270574;29;20507;-82
2022/04/15 09:45:26;;;;;;;2.33;1.27;;;;;;;;;;20285764;29;20051;-83
2022/04/15 09:55:28;;;;;;;1.45;1.20;;;;;;;;;;20270778;29;20091;-82
2022/04/15 10:05:31;;;;;;;2.63;1.67;;;;;;;;;;20270205;29;20406;-82
2022/04/15 10:15:33;;;;;;;1.90;1.40;;;;;;;;;;20269469;29;20124;-79
2022/04/15 10:25:36;;;;;;;2.50;1.45;;;;;;;;;;20268410;29;20056;-82
2022/04/15 10:35:40;;;;;;;1.67;1.40;;;;;;;;;;20267597;29;20399;-83
2022/04/15 10:45:41;;;;;;;1.40;1.20;;;;;;;;;;20267039;29;20052;-83
2022/04/15 10:55:49;;;;;;;2.42;1.33;;;;;;;;;;20265111;29;20527;-82
2022/04/15 11:05:51;;;;;;;2.72;1.45;;;;;;;;;;20265679;29;20053;-82
2022/04/15 11:15:57;;;;;;;2.38;1.67;;;;;;;;;;20265426;29;20502;-82
2022/04/15 11:25:59;;;;;;;2.53;1.55;;;;;;;;;;20264401;29;20053;-81
2022/04/15 11:36:01;;;;;;;2.55;1.40;;;;;;;;;;20264450;29;20053;-83
2022/04/15 11:46:03;;;;;;;3.63;1.60;;;;;;;;;;20277473;29;20061;-82
2022/04/15 11:56:05;;;;;;;2.42;1.77;;;;;;;;;;20262781;29;20140;-82
2022/04/15 12:06:09;;;;;;;3.13;1.65;;;;;;;;;;20278825;29;20052;-82
2022/04/15 12:16:11;;;;;;;2.22;1.60;;;;;;;;;;20277855;29;20135;-82
2022/04/15 12:26:14;;;;;;;3.33;1.98;;;;;;;;;;20291563;29;20080;-81
2022/04/15 12:36:17;;;;;;;3.38;1.70;;;;;;;;;;20276819;29;20068;-82
2022/04/15 12:46:19;;;;;;;3.15;1.90;;;;;;;;;;20276246;29;20155;-81
2022/04/15 12:56:23;;;;;;;2.53;1.98;;;;;;;;;;20274774;29;20063;-82
2022/04/15 13:06:25;;;;;;;3.33;1.90;;;;;;;;;;20274998;29;20048;-82
2022/04/15 13:16:27;;;;;;;2.75;1.90;;;;;;;;;;20278856;29;20053;-82
2022/04/15 13:26:31;;;;;;;3.03;1.70;;;;;;;;;;20272632;29;20104;-81
2022/04/15 13:36:34;;;;;;;2.08;1.60;;;;;;;;;;20272492;29;20495;-82
2022/04/15 13:46:36;;;;;;;3.08;1.48;;;;;;;;;;20286293;29;20056;-82
2022/04/15 13:56:38;;;;;;;2.17;1.52;;;;;;;;;;20272501;29;20053;-83
2022/04/15 14:06:41;;;;;;;2.03;1.30;;;;;;;;;;20268914;29;20048;-83
2022/04/15 14:16:44;;;;;;;3.30;1.83;;;;;;;;;;20270138;29;20484;-83
2022/04/15 14:26:46;;;;;;;3.58;2.00;;;;;;;;;;20269922;29;20084;-83
2022/04/15 14:36:48;;;;;;;1.85;1.70;;;;;;;;;;20282437;29;20169;-83
2022/04/15 14:46:50;;;;;;;1.88;1.50;;;;;;;;;;20250709;29;20051;-82
2022/04/15 14:56:51;;;;;;;2.47;1.65;;;;;;;;;;20267661;29;20567;-83
2022/04/15 15:06:53;;;;;;;1.98;1.48;;;;;;;;;;20335455;29;20048;-83
2022/04/15 15:16:55;;;;;;;2.45;1.67;;;;;;;;;;20342929;29;20044;-83
2022/04/15 15:37:18;;;;;;;2.22;1.42;;;;;;;;;;20342565;29;20052;-83
2022/04/15 15:47:20;;;;;;;1.98;1.60;;;;;;;;;;20342100;29;20046;-83
2022/04/15 15:57:22;;;;;;;2.25;1.50;;;;;;;;;;20339362;29;20048;-81
2022/04/15 16:07:23;;;;;;;1.83;1.40;;;;;;;;;;20341318;29;20048;-82
2022/04/15 16:17:26;;;;;;;3.15;1.60;;;;;;;;;;20340803;29;20059;-82
2022/04/15 16:27:28;;;;;;;1.77;1.48;;;;;;;;;;20328540;29;20111;-82
2022/04/15 16:37:30;;;;;;;2.10;1.50;;;;;;;;;;20354961;29;20048;-81
2022/04/15 16:47:32;;;;;;;2.03;1.20;;;;;;;;;;20353930;29;20048;-82
2022/04/15 17:07:54;;;;;;;1.30;1.17;;;;;;;;;;20335772;29;20050;-81
2022/04/15 17:17:55;;;;;;;2.45;1.55;;;;;;;;;;20351780;29;20048;-81
2022/04/15 17:27:57;;;;;;;1.83;1.50;;;;;;;;;;20333800;29;20112;-82
2022/04/15 17:38:00;;;;;;;1.95;1.55;;;;;;;;;;20328941;29;20044;-80
2022/04/15 17:48:01;;;;;;;3.15;1.80;;;;;;;;;;20283522;29;20191;-82
2022/04/15 17:58:03;;;;;;;2.30;1.45;;;;;;;;;;20347770;29;20055;-81
2022/04/15 18:08:05;;;;;;;1.90;1.30;;;;;;;;;;20291355;29;20080;-82
2022/04/15 18:18:07;;;;;;;1.30;1.20;;;;;;;;;;20271634;29;20060;-81
2022/04/15 18:28:09;;;;;;;1.92;1.55;;;;;;;;;;20280949;29;20062;-80
2022/04/15 18:38:11;;;;;;;1.75;1.30;;;;;;;;;;20293436;29;20143;-81
2022/04/15 18:58:33;;;;;;;2.53;1.25;;;;;;;;;;20305292;29;20392;-81
2022/04/15 19:08:35;;;;;;;1.98;1.48;;;;;;;;;;20292240;29;20565;-78
2022/04/15 19:18:37;;;;;;;2.67;1.27;;;;;;;;;;20290181;29;20540;-78
2022/04/15 19:28:39;;;;;;;1.80;1.30;;;;;;;;;;20292951;28;20071;-78
2022/04/15 19:38:41;;;;;;;2.35;1.10;;;;;;;;;;20293114;29;20048;-81
2022/04/15 19:48:43;;;;;;;1.70;1.30;;;;;;;;;;20295994;29;20067;-82
2022/04/15 20:09:10;;;;;;;2.25;1.40;;;;;;;;;;20358814;29;20080;-82
2022/04/15 20:19:13;;;;;;;1.80;1.10;;;;;;;;;;20357415;29;20060;-82
2022/04/15 20:29:14;;;;;;;2.03;1.40;;;;;;;;;;20324009;28;20070;-82
2022/04/15 20:39:16;;;;;;;1.35;1.25;;;;;;;;;;20355841;29;20051;-82
2022/04/15 20:59:41;;;;;;;1.80;1.40;;;;;;;;;;20321626;29;20052;-82
2022/04/15 21:09:43;;;;;;;1.40;1.30;;;;;;;;;;20311119;29;20055;-82
2022/04/15 21:19:44;;;;;;;1.33;1.08;;;;;;;;;;20313410;29;20049;-85
2022/04/15 21:29:46;;;;;;;3.53;1.80;;;;;;;;;;20285222;29;20510;-82
2022/04/15 21:39:48;;;;;;;1.70;1.30;;;;;;;;;;20312404;29;20145;-81
2022/04/15 21:49:50;;;;;;;1.20;1.10;;;;;;;;;;20323217;29;20060;-83
2022/04/15 21:59:52;;;;;;;2.03;1.42;;;;;;;;;;20309954;29;20048;-83
2022/04/15 22:09:53;;;;;;;1.50;1.40;;;;;;;;;;20293247;29;20055;-83
2022/04/15 22:19:55;;;;;;;1.90;1.52;;;;;;;;;;20297038;29;20418;-84
2022/04/15 22:29:58;;;;;;;2.63;1.60;;;;;;;;;;20311098;28;20392;-82
2022/04/15 22:40:00;;;;;;;2.13;1.30;;;;;;;;;;20304764;29;21852;-80
2022/04/15 22:50:02;;;;;;;1.90;1.23;;;;;;;;;;20305152;29;20059;-80
2022/04/15 23:00:06;;;;;;;1.30;1.20;;;;;;;;;;20309277;29;20056;-80
2022/04/15 23:10:08;;;;;;;1.65;1.38;;;;;;;;;;20309639;29;20044;-84
2022/04/15 23:20:11;;;;;;;1.30;1.08;;;;;;;;;;20286454;29;20072;-83
2022/04/15 23:30:13;;;;;;;1.83;1.35;;;;;;;;;;20296231;29;20085;-84
2022/04/15 23:40:15;;;;;;;2.20;1.40;;;;;;;;;;20305762;29;20586;-87
2022/04/15 23:50:17;;;;;;;1.15;1.00;;;;;;;;;;20307503;29;20060;-88
